Time;durP1;ratioP1;P1;durP2;ratioP2;P2;SDS_P1;SDS_P2;PMS_P1;PMS_P2;Temp;Humidity;BMP_temperature;BMP_pressure;BME280_temperature;BME280_humidity;BME280_pressure;Samples;Min_cycle;Max_cycle;Signal;HPM_P1;HPM_P2
2022/10/25 00:00:48;;;;;;;;;;;;;;;;;;5026375;28;19925;-57
2022/10/25 00:03:14;;;;;;;;;;;;;;;;;;5026885;28;19925;-57
2022/10/25 00:05:39;;;;;;;;;;;;;;;;;;5026869;28;19933;-56
2022/10/25 00:08:05;;;;;;;;;;;;;;;;;;5025591;28;19931;-57
2022/10/25 00:10:31;;;;;;;;;;;;;;;;;;5026327;28;19979;-58
2022/10/25 00:12:57;;;;;;;;;;;;;;;;;;5026886;28;19929;-57
2022/10/25 00:15:23;;;;;;;;;;;;;;;;;;5027068;28;19925;-56
2022/10/25 00:17:49;;;;;;;;;;;;;;;;;;5026068;28;19932;-56
2022/10/25 00:20:15;;;;;;;;;;;;;;;;;;5026857;28;19932;-57
2022/10/25 00:22:41;;;;;;;;;;;;;;;;;;5025835;28;19925;-58
2022/10/25 00:25:08;;;;;;;;;;;;;;;;;;5025760;28;19933;-57
2022/10/25 00:27:33;;;;;;;;;;;;;;;;;;5026105;28;20375;-56
2022/10/25 00:29:59;;;;;;;;;;;;;;;;;;5026455;28;19925;-56
2022/10/25 00:32:25;;;;;;;;;;;;;;;;;;5027008;28;19933;-57
2022/10/25 00:34:51;;;;;;;;;;;;;;;;;;5026048;28;20016;-56
2022/10/25 00:37:17;;;;;;;;;;;;;;;;;;5025030;28;19986;-57
2022/10/25 00:39:43;;;;;;;;;;;;;;;;;;5025740;28;19925;-56
2022/10/25 00:42:09;;;;;;;;;;;;;;;;;;5026267;28;20453;-56
2022/10/25 00:44:35;;;;;;;;;;;;;;;;;;5026237;28;19925;-57
2022/10/25 00:47:01;;;;;;;;;;;;;;;;;;5026184;28;19929;-56
2022/10/25 00:49:27;;;;;;;;;;;;;;;;;;5022741;28;20070;-57
2022/10/25 00:51:53;;;;;;;;;;;;;;;;;;5025761;28;20437;-56
2022/10/25 00:54:19;;;;;;;;;;;;;;;;;;5025123;28;19932;-56
2022/10/25 00:56:45;;;;;;;;;;;;;;;;;;5026157;28;20411;-58
2022/10/25 00:59:11;;;;;;;;;;;;;;;;;;5024759;28;20019;-56
2022/10/25 01:01:37;;;;;;;;;;;;;;;;;;5024456;28;19948;-57
2022/10/25 01:04:03;;;;;;;;;;;;;;;;;;5074094;22;20362;-57
2022/10/25 01:06:29;;;;;;;;;;;;;;;;;;4985603;28;19925;-57
2022/10/25 01:08:55;;;;;;;;;;;;;;;;;;4984259;28;19932;-57
2022/10/25 01:11:21;;;;;;;;;;;;;;;;;;4986423;28;19961;-57
2022/10/25 01:13:47;;;;;;;;;;;;;;;;;;4986685;28;19936;-58
2022/10/25 01:16:13;;;;;;;;;;;;;;;;;;4969041;28;19933;-57
2022/10/25 01:18:42;;;;;;;;;;;;;;;;;;4986521;28;19984;-57
2022/10/25 01:21:08;;;;;;;;;;;;;;;;;;4986012;28;19926;-56
2022/10/25 01:23:34;;;;;;;;;;;;;;;;;;4985520;28;19948;-58
2022/10/25 01:26:00;;;;;;;;;;;;;;;;;;4986490;28;19957;-56
2022/10/25 01:28:26;;;;;;;;;;;;;;;;;;4986809;28;20574;-58
2022/10/25 01:30:52;;;;;;;;;;;;;;;;;;4986972;28;19924;-58
2022/10/25 01:33:18;;;;;;;;;;;;;;;;;;4986063;28;19933;-57
2022/10/25 01:35:44;;;;;;;;;;;;;;;;;;4986051;28;20635;-56
2022/10/25 01:38:10;;;;;;;;;;;;;;;;;;4985592;28;20012;-57
2022/10/25 01:40:36;;;;;;;;;;;;;;;;;;4985457;28;19960;-57
2022/10/25 01:43:02;;;;;;;;;;;;;;;;;;4985477;28;19925;-57
2022/10/25 01:45:28;;;;;;;;;;;;;;;;;;4985952;28;19980;-57
2022/10/25 01:47:54;;;;;;;;;;;;;;;;;;4986980;28;20283;-57
2022/10/25 01:50:20;;;;;;;;;;;;;;;;;;4985741;28;20016;-57
2022/10/25 01:52:46;;;;;;;;;;;;;;;;;;4985946;28;20430;-57
2022/10/25 01:55:12;;;;;;;;;;;;;;;;;;4967756;28;19933;-57
2022/10/25 01:57:38;;;;;;;;;;;;;;;;;;4986413;28;19925;-56
2022/10/25 02:00:05;;;;;;;;;;;;;;;;;;4986216;28;19926;-57
2022/10/25 02:02:31;;;;;;;;;;;;;;;;;;4985796;28;19926;-57
2022/10/25 02:04:57;;;;;;;;;;;;;;;;;;4985220;28;20004;-57
2022/10/25 02:07:24;;;;;;;;;;;;;;;;;;4986292;28;19926;-56
2022/10/25 02:09:49;;;;;;;;;;;;;;;;;;4985568;28;19926;-57
2022/10/25 02:12:16;;;;;;;;;;;;;;;;;;4985656;28;20345;-57
2022/10/25 02:14:42;;;;;;;;;;;;;;;;;;4968343;28;19987;-58
2022/10/25 02:17:07;;;;;;;;;;;;;;;;;;4985837;28;19930;-57
2022/10/25 02:19:33;;;;;;;;;;;;;;;;;;4987703;28;19922;-57
2022/10/25 02:21:59;;;;;;;;;;;;;;;;;;4989621;28;19926;-57
2022/10/25 02:24:25;;;;;;;;;;;;;;;;;;4988914;28;19985;-57
2022/10/25 02:26:51;;;;;;;;;;;;;;;;;;4989900;28;19993;-58
2022/10/25 02:29:17;;;;;;;;;;;;;;;;;;4989176;28;20086;-57
2022/10/25 02:31:43;;;;;;;;;;;;;;;;;;4989448;28;19922;-57
2022/10/25 02:34:09;;;;;;;;;;;;;;;;;;4988511;28;19925;-57
2022/10/25 02:36:35;;;;;;;;;;;;;;;;;;4986297;28;19934;-57
2022/10/25 02:39:01;;;;;;;;;;;;;;;;;;4988453;28;19941;-58
2022/10/25 02:41:27;;;;;;;;;;;;;;;;;;4989396;28;20633;-58
2022/10/25 02:43:53;;;;;;;;;;;;;;;;;;4989893;28;20013;-57
2022/10/25 02:46:19;;;;;;;;;;;;;;;;;;4988573;28;20012;-57
2022/10/25 02:48:45;;;;;;;;;;;;;;;;;;4988871;28;20324;-56
2022/10/25 02:51:11;;;;;;;;;;;;;;;;;;4988933;28;19926;-57
2022/10/25 02:53:37;;;;;;;;;;;;;;;;;;4988117;28;19926;-58
2022/10/25 02:56:03;;;;;;;;;;;;;;;;;;4988816;28;20009;-57
2022/10/25 02:58:29;;;;;;;;;;;;;;;;;;4989062;28;20026;-57
2022/10/25 03:00:55;;;;;;;;;;;;;;;;;;4989218;28;19926;-57
2022/10/25 03:03:21;;;;;;;;;;;;;;;;;;4970275;28;19933;-57
2022/10/25 03:05:47;;;;;;;;;;;;;;;;;;4988917;28;20012;-58
2022/10/25 03:08:13;;;;;;;;;;;;;;;;;;4987804;28;19917;-57
2022/10/25 03:10:39;;;;;;;;;;;;;;;;;;4988905;28;19934;-58
2022/10/25 03:13:05;;;;;;;;;;;;;;;;;;4988204;28;20021;-57
2022/10/25 03:15:31;;;;;;;;;;;;;;;;;;4988690;28;19933;-58
2022/10/25 03:17:57;;;;;;;;;;;;;;;;;;4988504;28;19945;-59
2022/10/25 03:20:23;;;;;;;;;;;;;;;;;;4988852;28;20422;-58
2022/10/25 03:22:49;;;;;;;;;;;;;;;;;;4988614;28;19926;-56
2022/10/25 03:25:15;;;;;;;;;;;;;;;;;;4987985;28;20008;-58
2022/10/25 03:27:41;;;;;;;;;;;;;;;;;;4988880;28;19934;-58
2022/10/25 03:30:07;;;;;;;;;;;;;;;;;;4987222;28;19949;-57
2022/10/25 03:32:33;;;;;;;;;;;;;;;;;;4988089;28;19936;-56
2022/10/25 03:34:59;;;;;;;;;;;;;;;;;;4987181;28;20361;-56
2022/10/25 03:37:25;;;;;;;;;;;;;;;;;;4988949;28;19926;-57
2022/10/25 03:39:53;;;;;;;;;;;;;;;;;;4987212;28;20333;-57
2022/10/25 03:42:18;;;;;;;;;;;;;;;;;;4987654;28;19925;-57
2022/10/25 03:44:44;;;;;;;;;;;;;;;;;;4970477;28;19988;-57
2022/10/25 03:47:10;;;;;;;;;;;;;;;;;;4987310;28;19932;-58
2022/10/25 03:49:36;;;;;;;;;;;;;;;;;;4988356;28;19949;-56
2022/10/25 03:52:04;;;;;;;;;;;;;;;;;;4985280;28;19968;-57
2022/10/25 03:54:30;;;;;;;;;;;;;;;;;;4986802;28;19926;-57
2022/10/25 03:56:56;;;;;;;;;;;;;;;;;;4987598;28;19925;-59
2022/10/25 03:59:22;;;;;;;;;;;;;;;;;;4988399;28;19940;-57
2022/10/25 04:01:48;;;;;;;;;;;;;;;;;;4987591;28;19926;-57
2022/10/25 04:04:14;;;;;;;;;;;;;;;;;;4987445;28;21765;-57
2022/10/25 04:06:40;;;;;;;;;;;;;;;;;;4987843;28;19926;-56
2022/10/25 04:09:06;;;;;;;;;;;;;;;;;;4986811;28;20440;-57
2022/10/25 04:11:32;;;;;;;;;;;;;;;;;;4987766;28;19936;-56
2022/10/25 04:13:58;;;;;;;;;;;;;;;;;;4987318;28;19953;-58
2022/10/25 04:16:25;;;;;;;;;;;;;;;;;;4987849;28;19926;-58
2022/10/25 04:18:52;;;;;;;;;;;;;;;;;;4987720;28;19984;-57
2022/10/25 04:21:18;;;;;;;;;;;;;;;;;;4987547;28;20027;-57
2022/10/25 04:23:44;;;;;;;;;;;;;;;;;;4968855;28;19981;-58
2022/10/25 04:26:10;;;;;;;;;;;;;;;;;;4987362;28;20379;-57
2022/10/25 04:28:36;;;;;;;;;;;;;;;;;;4987788;28;19953;-58
2022/10/25 04:31:02;;;;;;;;;;;;;;;;;;4982769;28;20085;-58
2022/10/25 04:33:28;;;;;;;;;;;;;;;;;;4986833;28;19926;-57
2022/10/25 04:35:55;;;;;;;;;;;;;;;;;;4987629;28;19925;-57
2022/10/25 04:38:21;;;;;;;;;;;;;;;;;;4986022;28;19933;-57
2022/10/25 04:40:47;;;;;;;;;;;;;;;;;;4987035;28;20806;-56
2022/10/25 04:43:13;;;;;;;;;;;;;;;;;;4986752;28;19926;-57
2022/10/25 04:45:39;;;;;;;;;;;;;;;;;;4986653;28;19961;-56
2022/10/25 04:48:04;;;;;;;;;;;;;;;;;;4986904;28;20393;-57
2022/10/25 04:50:30;;;;;;;;;;;;;;;;;;4986546;28;19926;-57
2022/10/25 04:52:56;;;;;;;;;;;;;;;;;;4968848;28;19968;-59
2022/10/25 04:55:22;;;;;;;;;;;;;;;;;;4986473;28;19929;-57
2022/10/25 04:57:48;;;;;;;;;;;;;;;;;;4969355;28;20469;-58
2022/10/25 05:00:14;;;;;;;;;;;;;;;;;;4986155;28;19960;-58
2022/10/25 05:02:40;;;;;;;;;;;;;;;;;;4978458;28;19934;-56
2022/10/25 05:05:06;;;;;;;;;;;;;;;;;;4986227;28;19926;-57
2022/10/25 05:07:32;;;;;;;;;;;;;;;;;;4986393;28;19980;-57
2022/10/25 05:09:58;;;;;;;;;;;;;;;;;;4985844;28;19933;-58
2022/10/25 05:12:24;;;;;;;;;;;;;;;;;;4986981;28;19926;-57
2022/10/25 05:14:50;;;;;;;;;;;;;;;;;;4986535;28;19981;-56
2022/10/25 05:17:16;;;;;;;;;;;;;;;;;;4968062;28;20535;-57
2022/10/25 05:19:42;;;;;;;;;;;;;;;;;;4984553;28;19926;-57
2022/10/25 05:22:08;;;;;;;;;;;;;;;;;;4984160;28;20016;-58
2022/10/25 05:24:34;;;;;;;;;;;;;;;;;;4985102;28;19930;-58
2022/10/25 05:27:00;;;;;;;;;;;;;;;;;;4985323;28;20391;-57
2022/10/25 05:29:26;;;;;;;;;;;;;;;;;;4984734;28;19925;-57
2022/10/25 05:31:52;;;;;;;;;;;;;;;;;;4984607;28;19934;-57
2022/10/25 05:34:18;;;;;;;;;;;;;;;;;;4984302;28;19972;-57
2022/10/25 05:36:44;;;;;;;;;;;;;;;;;;4984157;28;19926;-57
2022/10/25 05:39:10;;;;;;;;;;;;;;;;;;4984214;28;19926;-57
2022/10/25 05:41:36;;;;;;;;;;;;;;;;;;4986478;28;19961;-58
2022/10/25 05:44:02;;;;;;;;;;;;;;;;;;4986394;28;20019;-58
2022/10/25 05:46:28;;;;;;;;;;;;;;;;;;4986505;28;19930;-58
2022/10/25 05:48:54;;;;;;;;;;;;;;;;;;4987079;28;19926;-56
2022/10/25 05:51:20;;;;;;;;;;;;;;;;;;4980535;28;20008;-58
2022/10/25 05:53:46;;;;;;;;;;;;;;;;;;4967893;28;19932;-57
2022/10/25 05:56:13;;;;;;;;;;;;;;;;;;4988735;28;19926;-58
2022/10/25 05:58:39;;;;;;;;;;;;;;;;;;4988292;28;19925;-58
2022/10/25 06:01:05;;;;;;;;;;;;;;;;;;4989895;28;19971;-58
2022/10/25 06:03:31;;;;;;;;;;;;;;;;;;4972465;28;19972;-59
2022/10/25 06:05:57;;;;;;;;;;;;;;;;;;4989996;28;20016;-59
2022/10/25 06:08:23;;;;;;;;;;;;;;;;;;4981327;28;19922;-57
2022/10/25 06:10:49;;;;;;;;;;;;;;;;;;4985822;28;19926;-57
2022/10/25 06:13:14;;;;;;;;;;;;;;;;;;4987106;28;20368;-57
2022/10/25 06:15:40;;;;;;;;;;;;;;;;;;4986209;28;20016;-56
2022/10/25 06:18:06;;;;;;;;;;;;;;;;;;4985109;28;20487;-57
2022/10/25 06:20:32;;;;;;;;;;;;;;;;;;4989041;28;19930;-57
2022/10/25 06:22:58;;;;;;;;;;;;;;;;;;4989019;28;19933;-57
2022/10/25 06:25:24;;;;;;;;;;;;;;;;;;4990026;28;20397;-57
2022/10/25 06:27:50;;;;;;;;;;;;;;;;;;4989792;28;19925;-57
2022/10/25 06:30:16;;;;;;;;;;;;;;;;;;4989294;28;20648;-57
2022/10/25 06:32:42;;;;;;;;;;;;;;;;;;4972346;28;19926;-58
2022/10/25 06:35:08;;;;;;;;;;;;;;;;;;4988857;28;19949;-56
2022/10/25 06:37:34;;;;;;;;;;;;;;;;;;4988289;28;19926;-59
2022/10/25 06:40:00;;;;;;;;;;;;;;;;;;4989673;28;20441;-57
2022/10/25 06:42:26;;;;;;;;;;;;;;;;;;4989718;28;19926;-57
2022/10/25 06:44:52;;;;;;;;;;;;;;;;;;4989683;28;19973;-58
2022/10/25 06:47:18;;;;;;;;;;;;;;;;;;4989430;28;19949;-56
2022/10/25 06:49:44;;;;;;;;;;;;;;;;;;4988694;28;19940;-58
2022/10/25 06:52:10;;;;;;;;;;;;;;;;;;4988529;28;19926;-57
2022/10/25 06:54:36;;;;;;;;;;;;;;;;;;4988136;28;19929;-56
2022/10/25 06:57:02;;;;;;;;;;;;;;;;;;4989225;28;19957;-57
2022/10/25 06:59:28;;;;;;;;;;;;;;;;;;4989215;28;20374;-57
2022/10/25 07:01:56;;;;;;;;;;;;;;;;;;4989298;28;19926;-57
2022/10/25 07:04:21;;;;;;;;;;;;;;;;;;4987718;28;19972;-57
2022/10/25 07:06:48;;;;;;;;;;;;;;;;;;4984223;28;19934;-57
2022/10/25 07:09:14;;;;;;;;;;;;;;;;;;4985062;28;19995;-57
2022/10/25 07:11:40;;;;;;;;;;;;;;;;;;4986503;28;19932;-56
2022/10/25 07:14:06;;;;;;;;;;;;;;;;;;4985971;28;20002;-57
2022/10/25 07:16:32;;;;;;;;;;;;;;;;;;4985242;28;19981;-58
2022/10/25 07:18:58;;;;;;;;;;;;;;;;;;4984992;28;19932;-57
2022/10/25 07:21:24;;;;;;;;;;;;;;;;;;4985298;28;20004;-58
2022/10/25 07:23:50;;;;;;;;;;;;;;;;;;4984573;28;19926;-57
2022/10/25 07:26:16;;;;;;;;;;;;;;;;;;4985564;28;19925;-57
2022/10/25 07:28:42;;;;;;;;;;;;;;;;;;4986685;28;20564;-58
2022/10/25 07:31:08;;;;;;;;;;;;;;;;;;4984958;28;19926;-57
2022/10/25 07:33:34;;;;;;;;;;;;;;;;;;4983004;28;19933;-57
2022/10/25 07:36:00;;;;;;;;;;;;;;;;;;4984264;28;19926;-56
2022/10/25 07:38:26;;;;;;;;;;;;;;;;;;4984721;28;19925;-57
2022/10/25 07:40:52;;;;;;;;;;;;;;;;;;4985067;28;19981;-57
2022/10/25 07:43:18;;;;;;;;;;;;;;;;;;4981440;28;19980;-56
2022/10/25 07:45:44;;;;;;;;;;;;;;;;;;4983765;28;19928;-57
2022/10/25 07:48:10;;;;;;;;;;;;;;;;;;4985082;28;19953;-57
2022/10/25 07:50:36;;;;;;;;;;;;;;;;;;4983567;28;20057;-58
2022/10/25 07:53:02;;;;;;;;;;;;;;;;;;4983462;28;19917;-57
2022/10/25 07:55:28;;;;;;;;;;;;;;;;;;4985329;28;19930;-57
2022/10/25 07:57:54;;;;;;;;;;;;;;;;;;4985298;28;19981;-57
2022/10/25 08:00:20;;;;;;;;;;;;;;;;;;4985626;28;19984;-57
2022/10/25 08:02:46;;;;;;;;;;;;;;;;;;4985302;28;20376;-57
2022/10/25 08:05:12;;;;;;;;;;;;;;;;;;4983684;28;19969;-57
2022/10/25 08:07:38;;;;;;;;;;;;;;;;;;4983845;28;19934;-57
2022/10/25 08:10:04;;;;;;;;;;;;;;;;;;4984525;28;20771;-56
2022/10/25 08:12:30;;;;;;;;;;;;;;;;;;4985203;28;19925;-57
2022/10/25 08:14:56;;;;;;;;;;;;;;;;;;4984825;28;20395;-57
2022/10/25 08:17:22;;;;;;;;;;;;;;;;;;4983081;28;20020;-57
2022/10/25 08:19:48;;;;;;;;;;;;;;;;;;4984195;28;20869;-57
2022/10/25 08:22:14;;;;;;;;;;;;;;;;;;4985420;28;19926;-57
2022/10/25 08:24:40;;;;;;;;;;;;;;;;;;4984499;28;20453;-57
2022/10/25 08:27:06;;;;;;;;;;;;;;;;;;4984699;28;19926;-57
2022/10/25 08:29:32;;;;;;;;;;;;;;;;;;4984913;28;19926;-57
2022/10/25 08:31:58;;;;;;;;;;;;;;;;;;4984370;28;19988;-59
2022/10/25 08:34:24;;;;;;;;;;;;;;;;;;4965676;28;19973;-58
2022/10/25 08:36:50;;;;;;;;;;;;;;;;;;4984552;28;19925;-57
2022/10/25 08:39:16;;;;;;;;;;;;;;;;;;4983361;28;19940;-58
2022/10/25 08:41:42;;;;;;;;;;;;;;;;;;4984331;28;20023;-57
2022/10/25 08:44:08;;;;;;;;;;;;;;;;;;4984462;28;20016;-57
2022/10/25 08:46:34;;;;;;;;;;;;;;;;;;4984738;28;19936;-56
2022/10/25 08:49:00;;;;;;;;;;;;;;;;;;4982301;28;20009;-57
2022/10/25 08:51:26;;;;;;;;;;;;;;;;;;4983925;28;19980;-57
2022/10/25 08:53:52;;;;;;;;;;;;;;;;;;4983144;28;19933;-56
2022/10/25 08:56:20;;;;;;;;;;;;;;;;;;4983418;28;21294;-56
2022/10/25 08:58:46;;;;;;;;;;;;;;;;;;4984252;28;20006;-58
2022/10/25 09:01:12;;;;;;;;;;;;;;;;;;4981442;28;20548;-57
2022/10/25 09:03:38;;;;;;;;;;;;;;;;;;4983899;28;19961;-57
2022/10/25 09:06:04;;;;;;;;;;;;;;;;;;4983816;28;19972;-57
2022/10/25 09:08:30;;;;;;;;;;;;;;;;;;4983700;28;20005;-57
2022/10/25 09:10:56;;;;;;;;;;;;;;;;;;4984577;28;19936;-57
2022/10/25 09:13:25;;;;;;;;;;;;;;;;;;4984376;28;19922;-56
2022/10/25 09:15:51;;;;;;;;;;;;;;;;;;4983536;28;19926;-57
2022/10/25 09:18:18;;;;;;;;;;;;;;;;;;4983909;28;19930;-58
2022/10/25 09:20:44;;;;;;;;;;;;;;;;;;4983721;28;19929;-57
2022/10/25 09:23:10;;;;;;;;;;;;;;;;;;4983147;28;20507;-57
2022/10/25 09:25:36;;;;;;;;;;;;;;;;;;4966039;28;19925;-57
2022/10/25 09:28:02;;;;;;;;;;;;;;;;;;4982770;28;19968;-57
2022/10/25 09:30:28;;;;;;;;;;;;;;;;;;4984006;28;20012;-57
2022/10/25 09:32:55;;;;;;;;;;;;;;;;;;4984178;28;20069;-56
2022/10/25 09:35:21;;;;;;;;;;;;;;;;;;4982402;28;19926;-57
2022/10/25 09:37:47;;;;;;;;;;;;;;;;;;4981642;28;20582;-57
2022/10/25 09:40:13;;;;;;;;;;;;;;;;;;4983924;28;19926;-58
2022/10/25 09:42:39;;;;;;;;;;;;;;;;;;4983382;28;20153;-57
2022/10/25 09:45:05;;;;;;;;;;;;;;;;;;4983014;28;20438;-58
2022/10/25 09:47:31;;;;;;;;;;;;;;;;;;4983293;28;19961;-57
2022/10/25 09:49:57;;;;;;;;;;;;;;;;;;4982985;28;19944;-59
2022/10/25 09:52:23;;;;;;;;;;;;;;;;;;4980830;28;19936;-58
2022/10/25 09:54:49;;;;;;;;;;;;;;;;;;4983758;28;19926;-58
2022/10/25 09:57:15;;;;;;;;;;;;;;;;;;4983506;28;20400;-58
2022/10/25 09:59:41;;;;;;;;;;;;;;;;;;4983373;28;19929;-58
2022/10/25 10:02:07;;;;;;;;;;;;;;;;;;4983163;28;19949;-58
2022/10/25 10:04:33;;;;;;;;;;;;;;;;;;4981870;28;19926;-57
2022/10/25 10:06:59;;;;;;;;;;;;;;;;;;4982543;28;19929;-57
2022/10/25 10:09:25;;;;;;;;;;;;;;;;;;4982606;28;19988;-57
2022/10/25 10:11:51;;;;;;;;;;;;;;;;;;4982402;28;20343;-56
2022/10/25 10:14:17;;;;;;;;;;;;;;;;;;4983212;28;20622;-57
2022/10/25 10:16:43;;;;;;;;;;;;;;;;;;4983173;28;19926;-57
2022/10/25 10:19:09;;;;;;;;;;;;;;;;;;4983223;28;19926;-57
2022/10/25 10:21:35;;;;;;;;;;;;;;;;;;4981762;28;20467;-57
2022/10/25 10:24:01;;;;;;;;;;;;;;;;;;4982029;28;19926;-57
2022/10/25 10:26:27;;;;;;;;;;;;;;;;;;4983630;28;20453;-57
2022/10/25 10:28:53;;;;;;;;;;;;;;;;;;4983679;28;19937;-57
2022/10/25 10:31:19;;;;;;;;;;;;;;;;;;4982884;28;19981;-57
2022/10/25 10:33:45;;;;;;;;;;;;;;;;;;4982600;28;19948;-57
2022/10/25 10:36:11;;;;;;;;;;;;;;;;;;4982513;28;20406;-57
2022/10/25 10:38:37;;;;;;;;;;;;;;;;;;4982333;28;19980;-57
2022/10/25 10:41:03;;;;;;;;;;;;;;;;;;4984639;28;19930;-58
2022/10/25 10:43:29;;;;;;;;;;;;;;;;;;4984698;28;19926;-57
2022/10/25 10:45:55;;;;;;;;;;;;;;;;;;4985591;28;19976;-57
2022/10/25 10:48:21;;;;;;;;;;;;;;;;;;4984867;28;19925;-57
2022/10/25 10:50:47;;;;;;;;;;;;;;;;;;4986884;28;19988;-57
2022/10/25 10:53:13;;;;;;;;;;;;;;;;;;4985063;28;19926;-57
2022/10/25 10:55:39;;;;;;;;;;;;;;;;;;4986775;28;20527;-57
2022/10/25 10:58:05;;;;;;;;;;;;;;;;;;4985576;28;19926;-57
2022/10/25 11:00:31;;;;;;;;;;;;;;;;;;4986050;28;19925;-56
2022/10/25 11:02:57;;;;;;;;;;;;;;;;;;4985180;28;19976;-59
2022/10/25 11:05:23;;;;;;;;;;;;;;;;;;4985767;28;20287;-57
2022/10/25 11:07:49;;;;;;;;;;;;;;;;;;4984557;28;19922;-58
2022/10/25 11:10:15;;;;;;;;;;;;;;;;;;4984582;28;19933;-56
2022/10/25 11:12:41;;;;;;;;;;;;;;;;;;4983634;28;20421;-57
2022/10/25 11:15:07;;;;;;;;;;;;;;;;;;4984149;28;19937;-57
2022/10/25 11:17:33;;;;;;;;;;;;;;;;;;4982724;28;19930;-57
2022/10/25 11:19:59;;;;;;;;;;;;;;;;;;4981889;28;20662;-58
2022/10/25 11:22:25;;;;;;;;;;;;;;;;;;4981513;28;19929;-55
2022/10/25 11:24:51;;;;;;;;;;;;;;;;;;4966942;28;19949;-55
2022/10/25 11:27:17;;;;;;;;;;;;;;;;;;4983307;28;19976;-57
2022/10/25 11:29:43;;;;;;;;;;;;;;;;;;4983098;28;19940;-56
2022/10/25 11:32:09;;;;;;;;;;;;;;;;;;4983998;28;20471;-56
2022/10/25 11:34:35;;;;;;;;;;;;;;;;;;4982022;28;19934;-56
2022/10/25 11:37:01;;;;;;;;;;;;;;;;;;4981059;28;20342;-56
2022/10/25 11:39:27;;;;;;;;;;;;;;;;;;4983554;28;19965;-54
2022/10/25 11:41:53;;;;;;;;;;;;;;;;;;4982610;28;19930;-56
2022/10/25 11:44:19;;;;;;;;;;;;;;;;;;4982541;28;20380;-57
2022/10/25 11:46:45;;;;;;;;;;;;;;;;;;4981404;28;19988;-56
2022/10/25 11:49:11;;;;;;;;;;;;;;;;;;4981908;28;19926;-57
2022/10/25 11:51:37;;;;;;;;;;;;;;;;;;4984152;28;20469;-58
2022/10/25 11:54:03;;;;;;;;;;;;;;;;;;4984043;28;19932;-56
2022/10/25 11:56:29;;;;;;;;;;;;;;;;;;4983267;28;20390;-56
2022/10/25 11:58:55;;;;;;;;;;;;;;;;;;4985618;28;20466;-57
2022/10/25 12:01:21;;;;;;;;;;;;;;;;;;4984736;28;19932;-56
2022/10/25 12:03:47;;;;;;;;;;;;;;;;;;4984806;28;19936;-56
2022/10/25 12:06:13;;;;;;;;;;;;;;;;;;4984975;28;20024;-56
2022/10/25 12:08:40;;;;;;;;;;;;;;;;;;4982806;28;20368;-56
2022/10/25 12:11:06;;;;;;;;;;;;;;;;;;4984866;28;19933;-57
2022/10/25 12:13:32;;;;;;;;;;;;;;;;;;4985507;28;19929;-55
2022/10/25 12:15:58;;;;;;;;;;;;;;;;;;4983538;28;19941;-56
2022/10/25 12:18:24;;;;;;;;;;;;;;;;;;4985424;28;19930;-56
2022/10/25 12:20:50;;;;;;;;;;;;;;;;;;4983706;28;20391;-56
2022/10/25 12:23:16;;;;;;;;;;;;;;;;;;4984273;28;19926;-56
2022/10/25 12:25:42;;;;;;;;;;;;;;;;;;4987060;28;19934;-57
2022/10/25 12:28:08;;;;;;;;;;;;;;;;;;4986400;28;19926;-57
2022/10/25 12:30:34;;;;;;;;;;;;;;;;;;4968794;28;20489;-57
2022/10/25 12:33:00;;;;;;;;;;;;;;;;;;4986404;28;19933;-56
2022/10/25 12:35:27;;;;;;;;;;;;;;;;;;4986214;28;19926;-57
2022/10/25 12:37:53;;;;;;;;;;;;;;;;;;4984629;28;20411;-57
2022/10/25 12:40:19;;;;;;;;;;;;;;;;;;4979991;28;20005;-57
2022/10/25 12:42:45;;;;;;;;;;;;;;;;;;4984303;28;19930;-57
2022/10/25 12:45:11;;;;;;;;;;;;;;;;;;4981028;28;19937;-57
2022/10/25 12:47:37;;;;;;;;;;;;;;;;;;4983035;28;20549;-57
2022/10/25 12:50:03;;;;;;;;;;;;;;;;;;4982178;28;19934;-55
2022/10/25 12:52:29;;;;;;;;;;;;;;;;;;4978703;28;19930;-56
2022/10/25 12:54:55;;;;;;;;;;;;;;;;;;4984138;28;20049;-56
2022/10/25 12:57:21;;;;;;;;;;;;;;;;;;4983558;28;19930;-57
2022/10/25 12:59:47;;;;;;;;;;;;;;;;;;4983590;28;19988;-58
2022/10/25 13:02:13;;;;;;;;;;;;;;;;;;4981960;28;19926;-57
2022/10/25 13:04:39;;;;;;;;;;;;;;;;;;4978228;28;19934;-57
2022/10/25 13:07:05;;;;;;;;;;;;;;;;;;4984988;28;19988;-57
2022/10/25 13:09:31;;;;;;;;;;;;;;;;;;4985486;28;19973;-57
2022/10/25 13:11:57;;;;;;;;;;;;;;;;;;4974907;28;19926;-56
2022/10/25 13:14:23;;;;;;;;;;;;;;;;;;4985842;28;19926;-56
2022/10/25 13:16:49;;;;;;;;;;;;;;;;;;4987750;28;19926;-56
2022/10/25 13:19:15;;;;;;;;;;;;;;;;;;4984150;28;19926;-55
2022/10/25 13:21:41;;;;;;;;;;;;;;;;;;4984159;28;20328;-57
2022/10/25 13:24:08;;;;;;;;;;;;;;;;;;4967889;28;20383;-57
2022/10/25 13:26:34;;;;;;;;;;;;;;;;;;4985291;28;19949;-57
2022/10/25 13:29:01;;;;;;;;;;;;;;;;;;4981852;28;19926;-58
2022/10/25 13:31:27;;;;;;;;;;;;;;;;;;4986786;28;19933;-57
2022/10/25 13:33:53;;;;;;;;;;;;;;;;;;4987249;28;19934;-57
2022/10/25 13:36:19;;;;;;;;;;;;;;;;;;4985400;28;19926;-56
2022/10/25 13:38:45;;;;;;;;;;;;;;;;;;4968224;28;20384;-57
2022/10/25 13:41:11;;;;;;;;;;;;;;;;;;4986920;28;19924;-57
2022/10/25 13:43:37;;;;;;;;;;;;;;;;;;4986513;28;20342;-57
2022/10/25 13:46:03;;;;;;;;;;;;;;;;;;4986613;28;20371;-56
2022/10/25 13:48:29;;;;;;;;;;;;;;;;;;4986678;28;20356;-54
2022/10/25 13:50:55;;;;;;;;;;;;;;;;;;4986503;28;19934;-57
2022/10/25 13:53:21;;;;;;;;;;;;;;;;;;4985223;28;20029;-56
2022/10/25 13:55:47;;;;;;;;;;;;;;;;;;4969013;28;19929;-57
2022/10/25 13:58:13;;;;;;;;;;;;;;;;;;4968779;28;19926;-56
2022/10/25 14:00:39;;;;;;;;;;;;;;;;;;4986691;28;19926;-57
2022/10/25 14:03:05;;;;;;;;;;;;;;;;;;4986403;28;20526;-56
2022/10/25 14:05:31;;;;;;;;;;;;;;;;;;4985798;28;20066;-57
2022/10/25 14:07:57;;;;;;;;;;;;;;;;;;4985447;28;20029;-57
2022/10/25 14:10:23;;;;;;;;;;;;;;;;;;4986914;28;19925;-57
2022/10/25 14:12:49;;;;;;;;;;;;;;;;;;4986610;28;19933;-56
2022/10/25 14:15:15;;;;;;;;;;;;;;;;;;4987501;28;19929;-56
2022/10/25 14:17:41;;;;;;;;;;;;;;;;;;4990186;28;19936;-57
2022/10/25 14:20:07;;;;;;;;;;;;;;;;;;4971920;28;19940;-56
2022/10/25 14:22:33;;;;;;;;;;;;;;;;;;4989688;28;19937;-57
2022/10/25 14:24:59;;;;;;;;;;;;;;;;;;4990033;28;19930;-56
2022/10/25 14:27:25;;;;;;;;;;;;;;;;;;4990378;28;20474;-56
2022/10/25 14:29:51;;;;;;;;;;;;;;;;;;4989411;28;19926;-56
2022/10/25 14:32:17;;;;;;;;;;;;;;;;;;4972002;28;20371;-57
2022/10/25 14:34:43;;;;;;;;;;;;;;;;;;4989422;28;20024;-56
2022/10/25 14:37:09;;;;;;;;;;;;;;;;;;4989097;28;19980;-57
2022/10/25 14:39:35;;;;;;;;;;;;;;;;;;4989910;28;20445;-56
2022/10/25 14:42:01;;;;;;;;;;;;;;;;;;4989398;28;19933;-57
2022/10/25 14:44:28;;;;;;;;;;;;;;;;;;4989947;28;20434;-57
2022/10/25 14:46:54;;;;;;;;;;;;;;;;;;4972158;28;19925;-56
2022/10/25 14:49:20;;;;;;;;;;;;;;;;;;4988920;28;19934;-57
2022/10/25 14:51:46;;;;;;;;;;;;;;;;;;4988827;28;19945;-57
2022/10/25 14:54:12;;;;;;;;;;;;;;;;;;4989473;28;19980;-57
2022/10/25 14:56:38;;;;;;;;;;;;;;;;;;4989810;28;19926;-57
2022/10/25 14:59:04;;;;;;;;;;;;;;;;;;4988745;28;20322;-56
2022/10/25 15:01:30;;;;;;;;;;;;;;;;;;4989308;28;19926;-57
2022/10/25 15:03:56;;;;;;;;;;;;;;;;;;4988794;28;19972;-56
2022/10/25 15:06:22;;;;;;;;;;;;;;;;;;4989166;28;20520;-57
2022/10/25 15:08:48;;;;;;;;;;;;;;;;;;4989079;28;20426;-55
2022/10/25 15:11:14;;;;;;;;;;;;;;;;;;4988984;28;19930;-57
2022/10/25 15:13:40;;;;;;;;;;;;;;;;;;4989216;28;19926;-57
2022/10/25 15:16:06;;;;;;;;;;;;;;;;;;4988859;28;19925;-57
2022/10/25 15:18:33;;;;;;;;;;;;;;;;;;4971072;28;19926;-57
2022/10/25 15:20:59;;;;;;;;;;;;;;;;;;4988958;28;19926;-57
2022/10/25 15:23:25;;;;;;;;;;;;;;;;;;4988526;28;19941;-56
2022/10/25 15:25:51;;;;;;;;;;;;;;;;;;4988753;28;19949;-56
2022/10/25 15:28:18;;;;;;;;;;;;;;;;;;4988074;28;20303;-57
2022/10/25 15:30:44;;;;;;;;;;;;;;;;;;4988153;28;19925;-57
2022/10/25 15:33:10;;;;;;;;;;;;;;;;;;4987750;28;20299;-57
2022/10/25 15:35:36;;;;;;;;;;;;;;;;;;4988050;28;19933;-57
2022/10/25 15:38:02;;;;;;;;;;;;;;;;;;4987859;28;19925;-56
2022/10/25 15:40:28;;;;;;;;;;;;;;;;;;4988541;28;19925;-57
2022/10/25 15:42:54;;;;;;;;;;;;;;;;;;4988620;28;20013;-57
2022/10/25 15:45:20;;;;;;;;;;;;;;;;;;4988017;28;19925;-57
2022/10/25 15:47:47;;;;;;;;;;;;;;;;;;4987645;28;19933;-57
2022/10/25 15:50:13;;;;;;;;;;;;;;;;;;4984985;28;19925;-56
2022/10/25 15:52:39;;;;;;;;;;;;;;;;;;4986625;28;20071;-57
2022/10/25 15:55:05;;;;;;;;;;;;;;;;;;4988010;28;19933;-56
2022/10/25 15:57:31;;;;;;;;;;;;;;;;;;4988251;28;20279;-56
2022/10/25 15:59:57;;;;;;;;;;;;;;;;;;4987647;28;19926;-58
2022/10/25 16:02:25;;;;;;;;;;;;;;;;;;4988271;28;19961;-57
2022/10/25 16:04:51;;;;;;;;;;;;;;;;;;4988206;28;19972;-57
2022/10/25 16:07:17;;;;;;;;;;;;;;;;;;4987494;28;19929;-55
2022/10/25 16:09:43;;;;;;;;;;;;;;;;;;4987167;28;19972;-55
2022/10/25 16:12:09;;;;;;;;;;;;;;;;;;4987568;28;20015;-57
2022/10/25 16:14:35;;;;;;;;;;;;;;;;;;4987389;28;20363;-57
2022/10/25 16:17:01;;;;;;;;;;;;;;;;;;4986404;28;19932;-57
2022/10/25 16:19:30;;;;;;;;;;;;;;;;;;4987398;28;19929;-56
2022/10/25 16:21:56;;;;;;;;;;;;;;;;;;4987005;28;19932;-56
2022/10/25 16:24:22;;;;;;;;;;;;;;;;;;4987541;28;20033;-57
2022/10/25 16:26:48;;;;;;;;;;;;;;;;;;4987232;28;20017;-57
2022/10/25 16:29:14;;;;;;;;;;;;;;;;;;4987209;28;19936;-56
2022/10/25 16:31:40;;;;;;;;;;;;;;;;;;4987351;28;19930;-57
2022/10/25 16:34:06;;;;;;;;;;;;;;;;;;4987064;28;19929;-58
2022/10/25 16:36:32;;;;;;;;;;;;;;;;;;4969304;28;19929;-56